Time;durP1;ratioP1;P1;durP2;ratioP2;P2;SDS_P1;SDS_P2;PMS_P1;PMS_P2;Temp;Humidity;BMP_temperature;BMP_pressure;BME280_temperature;BME280_humidity;BME280_pressure;Samples;Min_cycle;Max_cycle;Signal;HPM_P1;HPM_P2
2024/02/17 00:01:20;;;;;;;10.47;5.50;;;12.50;99.90;;;;;;4991220;28;20034;-70
2024/02/17 00:03:45;;;;;;;10.97;5.97;;;12.50;99.90;;;;;;5007591;28;20046;-69
2024/02/17 00:06:11;;;;;;;14.13;5.97;;;12.50;99.90;;;;;;5007766;28;20026;-70
2024/02/17 00:08:37;;;;;;;13.07;5.73;;;12.50;99.90;;;;;;5007876;28;20040;-73
2024/02/17 00:11:03;;;;;;;11.37;6.10;;;12.50;99.90;;;;;;5006767;28;20409;-71
2024/02/17 00:13:29;;;;;;;8.50;5.45;;;12.50;99.90;;;;;;4993444;28;20033;-74
2024/02/17 00:15:54;;;;;;;7.00;5.05;;;12.50;99.90;;;;;;5007763;28;20030;-72
2024/02/17 00:18:23;;;;;;;6.90;3.93;;;12.50;99.90;;;;;;5007617;28;20782;-73
2024/02/17 00:20:48;;;;;;;7.07;4.43;;;12.50;99.90;;;;;;5006931;28;20033;-71
2024/02/17 00:23:14;;;;;;;7.60;4.80;;;12.50;99.90;;;;;;5007527;28;20038;-72
2024/02/17 00:25:40;;;;;;;7.57;4.60;;;12.50;99.90;;;;;;4989275;28;20030;-71
2024/02/17 00:28:06;;;;;;;9.55;5.25;;;12.50;99.90;;;;;;5006911;28;20113;-71
2024/02/17 00:30:31;;;;;;;9.98;4.60;;;12.50;99.90;;;;;;5006986;28;20033;-71
2024/02/17 00:32:57;;;;;;;14.13;4.83;;;12.40;99.90;;;;;;5007559;28;20572;-71
2024/02/17 00:35:23;;;;;;;5.53;3.77;;;12.40;99.90;;;;;;5007616;28;20029;-71
2024/02/17 00:37:48;;;;;;;9.03;5.13;;;12.40;99.90;;;;;;5007558;28;20128;-71
2024/02/17 00:40:14;;;;;;;7.73;4.30;;;12.50;99.90;;;;;;5009094;28;20041;-71
2024/02/17 00:42:40;;;;;;;8.45;4.53;;;12.50;99.90;;;;;;5002254;28;20034;-73
2024/02/17 00:45:06;;;;;;;16.33;4.23;;;12.50;99.90;;;;;;4991252;28;20085;-72
2024/02/17 00:47:31;;;;;;;22.60;5.28;;;12.50;99.90;;;;;;4991270;28;20521;-71
2024/02/17 00:49:57;;;;;;;28.77;4.20;;;12.50;99.90;;;;;;4991642;28;20034;-71
2024/02/17 00:52:22;;;;;;;27.40;4.30;;;12.50;99.90;;;;;;4991578;28;20518;-71
2024/02/17 00:54:48;;;;;;;23.00;4.73;;;12.50;99.90;;;;;;4991258;28;20037;-72
2024/02/17 00:57:13;;;;;;;5.37;3.33;;;12.40;99.90;;;;;;4991044;28;20022;-73
2024/02/17 00:59:39;;;;;;;9.60;3.70;;;12.40;99.90;;;;;;4990899;28;20509;-73
2024/02/17 01:02:04;;;;;;;6.33;3.37;;;12.40;99.90;;;;;;5000635;28;20022;-71
2024/02/17 01:04:30;;;;;;;7.83;4.00;;;12.50;99.90;;;;;;5010852;28;20026;-71
2024/02/17 01:06:56;;;;;;;9.63;4.43;;;12.50;99.90;;;;;;5010838;28;20018;-71
2024/02/17 01:09:21;;;;;;;9.53;4.77;;;12.40;99.90;;;;;;5010563;28;20093;-72
2024/02/17 01:11:47;;;;;;;9.47;4.70;;;12.40;99.90;;;;;;5006118;28;20042;-71
2024/02/17 01:14:12;;;;;;;6.60;4.07;;;12.40;99.90;;;;;;4990510;28;20518;-70
2024/02/17 01:16:40;;;;;;;7.37;3.90;;;12.40;99.90;;;;;;4990919;28;20022;-71
2024/02/17 01:19:06;;;;;;;11.50;4.43;;;12.40;99.90;;;;;;4990871;28;20033;-72
2024/02/17 01:21:33;;;;;;;6.80;4.28;;;12.40;99.90;;;;;;4991070;28;20037;-72
2024/02/17 01:23:59;;;;;;;6.15;3.92;;;12.40;99.90;;;;;;4991079;28;20049;-72
2024/02/17 01:26:24;;;;;;;8.57;3.77;;;12.40;99.90;;;;;;4973462;28;20030;-71
2024/02/17 01:28:50;;;;;;;5.53;3.90;;;12.40;99.90;;;;;;4997484;28;20353;-72
2024/02/17 01:31:15;;;;;;;7.37;3.30;;;12.40;99.90;;;;;;4993666;28;20057;-71
2024/02/17 01:33:41;;;;;;;8.83;3.87;;;12.40;99.90;;;;;;4990933;28;20069;-72
2024/02/17 01:36:14;;;;;;;6.00;4.03;;;12.40;99.90;;;;;;4990981;28;20041;-71
2024/02/17 01:38:40;;;;;;;9.50;3.97;;;12.40;99.90;;;;;;4995400;28;20405;-71
2024/02/17 01:41:06;;;;;;;8.57;3.73;;;12.40;99.90;;;;;;5010537;28;20026;-72
2024/02/17 01:43:32;;;;;;;5.10;3.67;;;12.50;99.90;;;;;;5008663;28;20438;-72
2024/02/17 01:45:57;;;;;;;6.00;3.80;;;12.40;99.90;;;;;;5010150;28;20128;-71
2024/02/17 01:48:23;;;;;;;6.20;3.97;;;12.40;99.90;;;;;;5009881;28;20583;-73
2024/02/17 01:50:49;;;;;;;6.43;3.80;;;12.40;99.90;;;;;;5008734;28;20565;-74
2024/02/17 01:53:15;;;;;;;7.63;3.40;;;12.50;99.90;;;;;;5009992;28;20040;-72
2024/02/17 01:55:42;;;;;;;8.00;3.90;;;12.40;99.90;;;;;;5009559;28;20512;-72
2024/02/17 01:58:07;;;;;;;7.22;3.58;;;12.40;99.90;;;;;;5009311;28;20521;-73
2024/02/17 02:00:33;;;;;;;6.40;3.27;;;12.50;99.90;;;;;;5004238;28;20038;-72
2024/02/17 02:02:59;;;;;;;6.73;2.87;;;12.40;99.90;;;;;;4992202;28;20533;-74
2024/02/17 02:05:24;;;;;;;10.33;2.70;;;12.40;99.90;;;;;;4989946;28;20113;-73
2024/02/17 02:07:50;;;;;;;6.27;2.70;;;12.40;99.90;;;;;;4990138;28;20030;-73
2024/02/17 02:10:16;;;;;;;5.80;2.50;;;12.40;99.90;;;;;;4989859;28;20041;-72
2024/02/17 02:12:41;;;;;;;4.90;2.55;;;12.40;99.90;;;;;;5004570;28;20030;-74
2024/02/17 02:15:10;;;;;;;4.53;2.43;;;12.30;99.90;;;;;;5009978;28;20045;-72
2024/02/17 02:17:39;;;;;;;3.30;1.98;;;12.30;99.90;;;;;;5010014;28;20129;-74
2024/02/17 02:20:06;;;;;;;3.67;2.10;;;12.30;99.90;;;;;;5009683;28;20030;-73
2024/02/17 02:22:32;;;;;;;3.17;2.08;;;12.30;99.90;;;;;;5009650;28;20041;-71
2024/02/17 02:24:58;;;;;;;;;;;12.30;99.90;;;;;;5010013;28;20049;-70
2024/02/17 02:27:25;;;;;;;2.67;1.80;;;12.30;99.90;;;;;;5009329;28;19949;-70
2024/02/17 02:29:52;;;;;;;3.20;1.70;;;12.30;99.90;;;;;;5009206;28;20024;-70
2024/02/17 02:32:18;;;;;;;3.75;1.90;;;12.30;99.90;;;;;;5009660;28;20030;-70
2024/02/17 02:34:47;;;;;;;4.95;1.98;;;12.30;99.90;;;;;;5009402;28;20022;-70
2024/02/17 02:37:13;;;;;;;3.13;1.70;;;12.20;99.90;;;;;;5002222;28;20032;-71
2024/02/17 02:39:39;;;;;;;6.97;1.93;;;12.20;99.90;;;;;;4989584;28;20553;-71
2024/02/17 02:42:04;;;;;;;2.13;1.57;;;12.30;99.90;;;;;;4999927;28;20358;-70
2024/02/17 02:44:30;;;;;;;4.90;2.07;;;12.20;99.90;;;;;;5008468;28;20033;-71
2024/02/17 02:46:56;;;;;;;2.03;1.60;;;12.20;99.90;;;;;;5008310;28;20071;-70
2024/02/17 02:49:21;;;;;;;3.97;1.70;;;12.20;99.90;;;;;;5008100;28;20053;-71
2024/02/17 02:51:47;;;;;;;2.67;1.50;;;12.30;99.90;;;;;;5008591;28;20038;-70
2024/02/17 02:54:13;;;;;;;3.03;1.57;;;12.20;99.90;;;;;;5008220;28;20101;-74
2024/02/17 02:56:38;;;;;;;3.93;1.30;;;12.20;99.90;;;;;;5008368;28;20056;-71
2024/02/17 02:59:04;;;;;;;1.33;0.90;;;12.30;99.90;;;;;;5008325;28;20029;-71
2024/02/17 03:01:29;;;;;;;2.60;1.23;;;12.20;99.90;;;;;;5002752;28;20066;-71
2024/02/17 03:03:55;;;;;;;2.90;1.37;;;12.20;99.90;;;;;;4987216;28;20034;-72
2024/02/17 03:06:22;;;;;;;2.57;1.10;;;12.20;99.90;;;;;;4979202;28;20111;-72
2024/02/17 03:08:48;;;;;;;1.08;0.88;;;12.20;99.90;;;;;;5007468;28;20040;-71
2024/02/17 03:11:15;;;;;;;6.23;1.00;;;12.20;99.90;;;;;;4982678;28;20034;-72
2024/02/17 03:13:40;;;;;;;1.65;0.82;;;12.20;99.90;;;;;;4988947;28;20022;-71
2024/02/17 03:16:06;;;;;;;1.40;0.80;;;12.20;99.90;;;;;;4987758;28;20035;-72
2024/02/17 03:18:31;;;;;;;3.83;0.83;;;12.20;99.90;;;;;;4987578;28;20046;-72
2024/02/17 03:20:57;;;;;;;1.57;0.63;;;12.20;99.90;;;;;;4986903;28;20274;-71
2024/02/17 03:23:23;;;;;;;1.07;0.70;;;12.20;99.90;;;;;;4987916;28;20449;-72
2024/02/17 03:25:48;;;;;;;2.10;1.00;;;12.20;99.90;;;;;;4989134;28;20540;-73
2024/02/17 03:28:14;;;;;;;2.33;0.80;;;12.20;99.90;;;;;;4988337;28;20037;-71
2024/02/17 03:30:40;;;;;;;2.93;0.57;;;12.20;99.90;;;;;;4998439;28;20377;-71
2024/02/17 03:33:06;;;;;;;1.27;0.70;;;12.20;99.90;;;;;;5006896;28;20045;-73
2024/02/17 03:35:33;;;;;;;0.83;0.60;;;12.10;99.90;;;;;;5007324;28;20041;-71
2024/02/17 03:37:58;;;;;;;1.80;0.70;;;12.20;99.90;;;;;;5007380;28;20084;-73
2024/02/17 03:40:24;;;;;;;2.60;0.80;;;12.20;99.90;;;;;;4968438;28;1094240;-74
2024/02/17 03:42:50;;;;;;;3.27;0.73;;;12.10;99.90;;;;;;5007737;28;20511;-72
2024/02/17 03:45:15;;;;;;;1.63;0.70;;;12.20;99.90;;;;;;5004936;28;20033;-72
2024/02/17 03:47:41;;;;;;;1.80;1.00;;;12.20;99.90;;;;;;5007434;28;20535;-73
2024/02/17 03:50:07;;;;;;;3.97;0.60;;;12.10;99.90;;;;;;5007377;28;20022;-71
2024/02/17 03:52:33;;;;;;;1.75;0.90;;;12.10;99.90;;;;;;5008109;28;20398;-74
2024/02/17 03:54:58;;;;;;;3.72;0.80;;;12.10;99.90;;;;;;5007165;28;20030;-71
2024/02/17 03:57:24;;;;;;;1.07;0.90;;;12.10;99.90;;;;;;5004658;28;20033;-74
2024/02/17 03:59:49;;;;;;;1.33;1.00;;;12.20;99.90;;;;;;5008116;28;20030;-74
2024/02/17 04:02:15;;;;;;;1.37;1.20;;;12.10;99.90;;;;;;4996034;28;20117;-73
2024/02/17 04:04:40;;;;;;;2.57;1.37;;;12.10;99.90;;;;;;4987748;28;20109;-74
2024/02/17 04:07:06;;;;;;;2.57;1.30;;;12.10;99.90;;;;;;4998597;28;20103;-73
2024/02/17 04:09:32;;;;;;;2.13;1.50;;;12.10;99.90;;;;;;4988721;28;20034;-75
2024/02/17 04:11:57;;;;;;;3.67;1.90;;;12.10;99.90;;;;;;4987434;28;20057;-74
2024/02/17 04:14:23;;;;;;;2.17;1.70;;;12.10;99.90;;;;;;4987880;28;20030;-73
2024/02/17 04:16:49;;;;;;;3.15;1.90;;;12.10;99.90;;;;;;4988135;28;20274;-73
2024/02/17 04:19:15;;;;;;;6.00;2.47;;;12.10;99.90;;;;;;4987729;28;20113;-72
2024/02/17 04:21:40;;;;;;;2.60;1.93;;;12.10;99.90;;;;;;4988039;28;20085;-74
2024/02/17 04:24:06;;;;;;;3.83;2.40;;;12.10;99.90;;;;;;4987773;28;20038;-74
2024/02/17 04:26:32;;;;;;;3.58;2.95;;;12.00;99.90;;;;;;4987580;28;20490;-70
2024/02/17 04:28:58;;;;;;;3.42;2.70;;;12.00;99.90;;;;;;4987618;28;20030;-70
2024/02/17 04:31:24;;;;;;;2.83;2.43;;;11.90;99.90;;;;;;4986869;28;20076;-73
2024/02/17 04:33:49;;;;;;;5.90;3.00;;;11.90;99.90;;;;;;4988325;28;20034;-75
2024/02/17 04:36:15;;;;;;;3.70;2.63;;;12.00;99.90;;;;;;4987857;28;20036;-71
2024/02/17 04:38:40;;;;;;;4.60;2.70;;;11.90;99.90;;;;;;4987898;28;20029;-70
2024/02/17 04:41:06;;;;;;;3.30;2.33;;;11.90;99.90;;;;;;4998973;28;20046;-70
2024/02/17 04:43:32;;;;;;;3.10;2.40;;;11.80;99.90;;;;;;4999680;28;20050;-71
2024/02/17 04:45:57;;;;;;;3.80;2.90;;;11.90;99.90;;;;;;4991666;28;20056;-70
2024/02/17 04:48:23;;;;;;;3.70;2.73;;;11.90;99.90;;;;;;4987994;28;20867;-72
2024/02/17 04:50:49;;;;;;;2.77;2.53;;;11.80;99.90;;;;;;4987614;28;20502;-71
2024/02/17 04:53:14;;;;;;;2.33;1.90;;;11.90;99.90;;;;;;4987306;28;20413;-72
2024/02/17 04:55:40;;;;;;;4.27;2.13;;;11.90;99.90;;;;;;4987822;28;20030;-70
2024/02/17 04:58:06;;;;;;;6.03;2.30;;;11.80;99.90;;;;;;4987058;28;20036;-72
2024/02/17 05:00:32;;;;;;;2.53;1.80;;;11.80;99.90;;;;;;4987057;28;20438;-73
2024/02/17 05:02:58;;;;;;;3.95;1.83;;;11.80;99.90;;;;;;4987641;28;20040;-73
2024/02/17 05:05:24;;;;;;;3.30;2.30;;;11.90;99.90;;;;;;4997590;28;20117;-71
2024/02/17 05:07:49;;;;;;;9.93;1.83;;;11.70;99.90;;;;;;4999896;28;20109;-72
2024/02/17 05:10:15;;;;;;;2.20;1.77;;;11.90;99.90;;;;;;5000196;28;20029;-72
2024/02/17 05:12:41;;;;;;;1.20;1.00;;;11.90;99.90;;;;;;5000051;28;20563;-72
2024/02/17 05:15:07;;;;;;;0.88;0.75;;;11.80;99.90;;;;;;4999918;28;20091;-72
2024/02/17 05:17:33;;;;;;;0.98;0.80;;;11.70;99.90;;;;;;4999755;28;20034;-72
2024/02/17 05:19:59;;;;;;;0.90;0.70;;;11.60;99.90;;;;;;5001393;28;20876;-72
2024/02/17 05:22:25;;;;;;;0.77;0.60;;;11.50;99.90;;;;;;4998480;28;20048;-72
2024/02/17 05:24:51;;;;;;;2.00;0.60;;;11.60;99.90;;;;;;5001867;28;20034;-72
2024/02/17 05:27:17;;;;;;;1.33;0.60;;;11.40;99.90;;;;;;5000862;28;20288;-72
2024/02/17 05:29:43;;;;;;;1.17;0.63;;;11.60;99.90;;;;;;4998504;28;20034;-72
2024/02/17 05:32:09;;;;;;;0.63;0.60;;;11.40;99.90;;;;;;5001462;28;20061;-72
2024/02/17 05:34:35;;;;;;;2.10;0.80;;;11.40;99.90;;;;;;5007006;28;20061;-72
2024/02/17 05:37:01;;;;;;;2.38;0.60;;;11.40;99.90;;;;;;5000182;28;20034;-73
2024/02/17 05:39:27;;;;;;;;;;;11.40;99.90;;;;;;5003095;28;20042;-72
2024/02/17 05:41:53;;;;;;;1.23;0.88;;;11.30;99.90;;;;;;5007628;28;20373;-71
2024/02/17 05:44:19;;;;;;;2.03;0.80;;;11.20;99.90;;;;;;4998535;28;20035;-72
2024/02/17 05:46:44;;;;;;;1.27;0.70;;;11.40;99.90;;;;;;4999258;28;20257;-72
2024/02/17 05:49:10;;;;;;;2.53;0.80;;;11.30;99.90;;;;;;5003917;28;20101;-72
2024/02/17 05:51:35;;;;;;;1.93;0.83;;;11.30;99.90;;;;;;4999054;28;20038;-72
2024/02/17 05:54:01;;;;;;;1.48;0.77;;;11.20;99.90;;;;;;5003140;28;20026;-72
2024/02/17 05:56:27;;;;;;;1.47;1.03;;;11.30;99.90;;;;;;5002733;28;20414;-71
2024/02/17 05:58:53;;;;;;;0.60;0.60;;;11.20;99.90;;;;;;4998358;28;20124;-72
2024/02/17 06:01:18;;;;;;;1.25;1.00;;;11.20;99.90;;;;;;5000497;28;20041;-72
2024/02/17 06:03:44;;;;;;;1.67;1.10;;;11.30;99.90;;;;;;4995448;28;20046;-71
2024/02/17 06:06:10;;;;;;;1.93;1.40;;;11.20;99.90;;;;;;4997227;28;20030;-71
2024/02/17 06:08:35;;;;;;;2.03;1.07;;;11.20;99.90;;;;;;5002707;28;20037;-72
2024/02/17 06:11:01;;;;;;;2.40;1.27;;;11.20;99.90;;;;;;4998777;28;20029;-71
2024/02/17 06:13:28;;;;;;;2.42;1.70;;;11.10;99.90;;;;;;4997728;28;20058;-71
2024/02/17 06:15:54;;;;;;;1.60;1.30;;;11.10;99.90;;;;;;5007133;28;20117;-71
2024/02/17 06:21:11;;;;;;;6.32;1.40;;;10.90;99.90;;;;;;5004994;28;20112;-71
2024/02/17 06:23:37;;;;;;;2.17;1.48;;;11.00;99.90;;;;;;5009104;28;20108;-71
2024/02/17 06:26:03;;;;;;;1.60;1.50;;;11.10;99.90;;;;;;5008210;28;20077;-70
2024/02/17 06:28:29;;;;;;;2.35;1.60;;;11.10;99.90;;;;;;5004578;28;20114;-71
2024/02/17 06:30:55;;;;;;;6.90;1.67;;;10.90;99.90;;;;;;5000340;28;20104;-71
2024/02/17 06:33:20;;;;;;;2.07;1.70;;;11.00;99.90;;;;;;4983445;28;20081;-71
2024/02/17 06:35:46;;;;;;;2.90;1.93;;;10.90;99.90;;;;;;5008908;28;20030;-71
2024/02/17 06:38:15;;;;;;;2.55;1.73;;;11.00;99.90;;;;;;4998332;28;20524;-71
2024/02/17 06:40:41;;;;;;;2.45;1.85;;;10.80;99.90;;;;;;5001347;28;20052;-72
2024/02/17 06:43:07;;;;;;;4.05;1.52;;;11.00;99.90;;;;;;4999444;28;20041;-71
2024/02/17 06:45:33;;;;;;;7.03;2.25;;;11.00;99.90;;;;;;4987971;28;20533;-71
2024/02/17 06:47:58;;;;;;;3.00;2.20;;;10.90;99.90;;;;;;4999480;28;20440;-71
2024/02/17 06:50:24;;;;;;;3.17;2.40;;;10.90;99.90;;;;;;4996932;28;20236;-71
2024/02/17 06:52:49;;;;;;;3.07;2.50;;;10.80;99.90;;;;;;4998514;28;20375;-71
2024/02/17 06:55:15;;;;;;;5.43;2.53;;;10.90;99.90;;;;;;4994106;28;20081;-71
2024/02/17 06:57:41;;;;;;;4.77;2.63;;;10.90;99.90;;;;;;4998607;28;20038;-72
2024/02/17 07:00:07;;;;;;;5.70;2.67;;;10.90;99.90;;;;;;4995690;28;20034;-72
2024/02/17 07:02:33;;;;;;;5.78;2.60;;;10.80;99.90;;;;;;5002872;28;20505;-72
2024/02/17 07:04:59;;;;;;;3.20;1.90;;;10.90;99.90;;;;;;5003223;28;20029;-72
2024/02/17 07:07:24;;;;;;;5.05;2.75;;;10.90;99.90;;;;;;5010716;28;20484;-72
2024/02/17 07:09:50;;;;;;;4.83;2.53;;;10.80;99.90;;;;;;4998046;28;20120;-72
2024/02/17 07:12:16;;;;;;;6.93;2.60;;;10.80;99.90;;;;;;4997763;28;20018;-72
2024/02/17 07:14:41;;;;;;;5.10;2.47;;;10.90;99.90;;;;;;5005382;28;20209;-75
2024/02/17 07:17:07;;;;;;;6.67;2.83;;;10.90;99.90;;;;;;4999407;28;20041;-73
2024/02/17 07:19:33;;;;;;;5.85;2.72;;;10.80;99.90;;;;;;4999020;28;20034;-73
2024/02/17 07:21:58;;;;;;;6.32;2.72;;;10.80;99.90;;;;;;5000790;28;20102;-73
2024/02/17 07:24:27;;;;;;;5.63;2.50;;;10.80;99.90;;;;;;5000440;28;20073;-73
2024/02/17 07:26:53;;;;;;;6.03;2.83;;;10.90;99.90;;;;;;4998102;28;20059;-73
2024/02/17 07:29:19;;;;;;;4.47;3.17;;;10.80;99.90;;;;;;5004314;28;20748;-72
2024/02/17 07:31:45;;;;;;;3.75;2.58;;;10.70;99.90;;;;;;4991910;28;20133;-72
2024/02/17 07:34:11;;;;;;;5.72;2.95;;;10.80;99.90;;;;;;4998852;28;20112;-72
2024/02/17 07:36:37;;;;;;;4.05;2.72;;;10.90;99.90;;;;;;5002907;28;20042;-72
2024/02/17 07:39:04;;;;;;;2.85;2.20;;;10.90;99.90;;;;;;4995074;28;20038;-71
2024/02/17 07:41:29;;;;;;;4.78;2.80;;;10.80;99.90;;;;;;5001288;28;20034;-71
2024/02/17 07:43:55;;;;;;;6.10;3.23;;;10.80;99.90;;;;;;4998575;28;20046;-72
2024/02/17 07:46:21;;;;;;;4.87;3.17;;;10.80;99.90;;;;;;4998621;28;20364;-72
2024/02/17 07:48:47;;;;;;;7.20;2.70;;;10.70;99.90;;;;;;4988143;28;20305;-71
2024/02/17 07:51:13;;;;;;;5.40;2.42;;;10.80;99.90;;;;;;4998853;28;20289;-71
2024/02/17 07:53:38;;;;;;;4.80;2.67;;;10.70;99.90;;;;;;4997942;28;20088;-72
2024/02/17 07:56:05;;;;;;;4.97;2.73;;;10.80;99.90;;;;;;4989824;28;20043;-73
2024/02/17 07:58:30;;;;;;;3.60;2.50;;;10.60;99.90;;;;;;5001940;28;20382;-72
2024/02/17 08:00:57;;;;;;;6.30;2.63;;;10.70;99.90;;;;;;5001297;28;20056;-72
2024/02/17 08:03:23;;;;;;;6.23;2.90;;;10.80;99.90;;;;;;5000456;28;20038;-71
2024/02/17 08:05:49;;;;;;;;;;;10.80;99.90;;;;;;4998239;28;20018;-72
2024/02/17 08:08:15;;;;;;;5.55;3.00;;;10.70;99.90;;;;;;4994718;28;20385;-77
2024/02/17 08:10:41;;;;;;;7.03;2.97;;;10.70;99.90;;;;;;4998595;28;20042;-75
2024/02/17 08:13:07;;;;;;;4.88;3.10;;;10.80;99.90;;;;;;4996388;28;20026;-72
2024/02/17 08:15:33;;;;;;;5.95;3.58;;;10.80;99.90;;;;;;4996415;28;20018;-75
2024/02/17 08:17:59;;;;;;;8.00;3.27;;;10.80;99.90;;;;;;4996360;28;20489;-74
2024/02/17 08:20:24;;;;;;;4.97;3.00;;;10.80;99.90;;;;;;4996212;28;20038;-73
2024/02/17 08:22:50;;;;;;;8.82;3.10;;;10.80;99.90;;;;;;4995589;28;20044;-75
2024/02/17 08:25:16;;;;;;;7.33;3.83;;;10.80;99.90;;;;;;4997985;28;20068;-74
2024/02/17 08:27:43;;;;;;;5.70;3.40;;;10.70;99.90;;;;;;4997390;28;20494;-74
2024/02/17 08:30:10;;;;;;;6.50;3.40;;;10.70;99.90;;;;;;5001641;28;20294;-74
2024/02/17 08:32:36;;;;;;;;;;;10.70;99.90;;;;;;4997500;28;20030;-74
2024/02/17 08:35:02;;;;;;;6.32;3.35;;;10.70;99.90;;;;;;5000273;28;19913;-74
2024/02/17 08:37:28;;;;;;;6.88;3.45;;;10.70;99.90;;;;;;4995387;28;20482;-74
2024/02/17 08:39:54;;;;;;;8.45;3.47;;;10.70;99.90;;;;;;4996046;28;20045;-73
2024/02/17 08:42:19;;;;;;;5.77;3.50;;;10.70;99.90;;;;;;4994151;28;20553;-74
2024/02/17 08:44:47;;;;;;;6.90;3.77;;;10.70;99.90;;;;;;4998178;28;20462;-73
2024/02/17 08:47:12;;;;;;;9.02;3.33;;;10.70;99.90;;;;;;4998411;28;20785;-73
2024/02/17 08:49:38;;;;;;;7.05;3.47;;;10.70;99.90;;;;;;4992958;28;20038;-72
2024/02/17 08:52:04;;;;;;;4.80;3.20;;;10.70;99.90;;;;;;4999623;28;20490;-73
2024/02/17 08:54:30;;;;;;;3.90;3.15;;;10.70;99.90;;;;;;5000130;28;20461;-74
2024/02/17 08:56:56;;;;;;;6.80;2.90;;;10.70;99.90;;;;;;5000595;28;20091;-75
2024/02/17 08:59:21;;;;;;;8.50;3.30;;;10.80;99.90;;;;;;4994767;28;20065;-74
2024/02/17 09:01:47;;;;;;;6.97;3.50;;;10.70;99.90;;;;;;4998775;28;20130;-74
2024/02/17 09:04:12;;;;;;;9.10;3.10;;;10.80;99.90;;;;;;4998431;28;20121;-75
2024/02/17 09:06:38;;;;;;;5.17;3.23;;;10.70;99.90;;;;;;4999573;28;20040;-76
2024/02/17 09:09:04;;;;;;;4.87;3.00;;;10.70;99.90;;;;;;4993889;28;20034;-75
2024/02/17 09:11:29;;;;;;;7.97;3.70;;;10.80;99.90;;;;;;5005499;28;20030;-76
2024/02/17 09:13:55;;;;;;;6.38;3.05;;;10.70;99.90;;;;;;5001882;28;20037;-75
2024/02/17 09:16:21;;;;;;;8.70;3.10;;;10.80;99.90;;;;;;4999546;28;20038;-73
2024/02/17 09:18:46;;;;;;;14.10;4.37;;;10.70;99.90;;;;;;5005482;28;20034;-74
2024/02/17 09:21:12;;;;;;;5.70;3.17;;;10.60;99.90;;;;;;4997064;28;20100;-73
2024/02/17 09:23:37;;;;;;;7.93;3.50;;;10.70;99.90;;;;;;5001551;28;20039;-76
2024/02/17 09:26:04;;;;;;;8.57;2.70;;;10.70;99.90;;;;;;5006922;28;20045;-76
2024/02/17 09:28:29;;;;;;;9.93;3.15;;;10.80;99.90;;;;;;5002254;28;20685;-73
2024/02/17 09:30:56;;;;;;;4.57;2.40;;;10.80;99.90;;;;;;5003106;28;20034;-74
2024/02/17 09:33:28;;;;;;;5.07;2.60;;;10.70;99.90;;;;;;4997091;28;20038;-71
2024/02/17 09:35:54;;;;;;;7.28;2.78;;;10.80;99.90;;;;;;5000892;28;20393;-72
2024/02/17 09:38:20;;;;;;;6.30;2.20;;;10.70;99.90;;;;;;5006015;28;20120;-72
2024/02/17 09:40:46;;;;;;;4.93;2.00;;;10.70;99.90;;;;;;4999968;28;20080;-72
2024/02/17 09:43:12;;;;;;;3.65;1.90;;;10.80;99.90;;;;;;5007485;28;20045;-71
2024/02/17 09:45:37;;;;;;;8.25;3.00;;;10.70;99.90;;;;;;5001375;28;20624;-69
2024/02/17 09:48:05;;;;;;;4.47;2.13;;;10.90;99.90;;;;;;4997468;28;20120;-75
2024/02/17 09:50:31;;;;;;;5.63;2.55;;;10.90;99.90;;;;;;5002472;28;20037;-71
2024/02/17 09:53:01;;;;;;;4.35;2.30;;;10.80;99.90;;;;;;5001338;28;20026;-72
2024/02/17 09:55:27;;;;;;;5.10;2.40;;;10.90;99.90;;;;;;5002803;28;20450;-71
2024/02/17 09:57:52;;;;;;;7.55;2.33;;;11.00;99.90;;;;;;5004898;28;20077;-70
2024/02/17 10:00:19;;;;;;;4.83;1.47;;;11.00;99.90;;;;;;5003621;28;20112;-72
2024/02/17 10:02:47;;;;;;;4.50;2.22;;;11.00;99.90;;;;;;5003449;28;20034;-75
2024/02/17 10:05:15;;;;;;;5.55;2.10;;;11.10;99.90;;;;;;5001111;28;20034;-78
2024/02/17 10:07:53;;;;;;;4.15;2.03;;;11.20;99.90;;;;;;5002284;28;20524;-72
2024/02/17 10:10:20;;;;;;;5.80;2.53;;;11.00;99.90;;;;;;5002849;28;20034;-75
2024/02/17 10:12:53;;;;;;;3.28;2.10;;;11.00;99.90;;;;;;5001019;28;20026;-75
2024/02/17 10:15:21;;;;;;;2.75;1.98;;;11.00;99.90;;;;;;5005524;28;20057;-71
2024/02/17 10:17:48;;;;;;;4.65;2.00;;;11.00;99.90;;;;;;4997370;28;20030;-70
2024/02/17 10:20:14;;;;;;;8.63;2.00;;;11.00;99.90;;;;;;5000593;28;20021;-71
2024/02/17 10:22:44;;;;;;;6.03;1.73;;;11.10;99.90;;;;;;4980762;28;20050;-70
2024/02/17 10:25:11;;;;;;;6.00;1.55;;;11.10;99.90;;;;;;5002518;28;20034;-70
2024/02/17 10:27:38;;;;;;;4.03;2.15;;;11.20;99.90;;;;;;5001810;28;20030;-70
2024/02/17 10:30:08;;;;;;;7.05;1.67;;;11.10;99.90;;;;;;4991203;28;20034;-69
2024/02/17 10:32:34;;;;;;;4.05;2.00;;;11.10;99.90;;;;;;4993927;28;20033;-70
2024/02/17 10:35:04;;;;;;;5.13;1.67;;;11.20;99.90;;;;;;4998952;28;20033;-70
2024/02/17 10:37:31;;;;;;;6.22;1.70;;;11.20;99.90;;;;;;5000972;28;20855;-70
2024/02/17 10:40:03;;;;;;;7.03;2.10;;;11.30;99.90;;;;;;4998782;28;20034;-71
2024/02/17 10:42:30;;;;;;;10.23;2.58;;;11.40;99.90;;;;;;5001284;28;20092;-70
2024/02/17 10:44:56;;;;;;;10.45;2.22;;;11.40;99.90;;;;;;4995696;28;20109;-70
2024/02/17 10:47:26;;;;;;;;;;;11.40;99.90;;;;;;4995164;28;20145;-70
2024/02/17 10:50:09;;;;;;;5.70;1.92;;;11.40;99.90;;;;;;4997011;28;19971;-70
2024/02/17 10:52:51;;;;;;;7.10;2.00;;;11.40;99.90;;;;;;5005200;28;20087;-70
2024/02/17 10:55:24;;;;;;;5.82;1.92;;;11.40;99.90;;;;;;4995863;28;20515;-70
2024/02/17 10:57:56;;;;;;;6.95;2.58;;;11.40;99.90;;;;;;4979653;28;20414;-69
2024/02/17 11:00:23;;;;;;;4.63;2.03;;;11.50;99.90;;;;;;4985708;28;20025;-70
2024/02/17 11:02:53;;;;;;;5.95;1.80;;;11.50;99.90;;;;;;5000385;28;20072;-70
2024/02/17 11:05:20;;;;;;;7.05;1.98;;;11.50;99.90;;;;;;5003291;28;20021;-71
2024/02/17 11:07:47;;;;;;;9.85;3.08;;;11.50;99.90;;;;;;5008543;28;20032;-72
2024/02/17 11:10:14;;;;;;;6.75;2.80;;;11.50;99.90;;;;;;5005365;28;20705;-75
2024/02/17 11:12:41;;;;;;;4.35;2.00;;;11.50;99.90;;;;;;5000015;28;20042;-73
2024/02/17 11:15:11;;;;;;;7.82;2.67;;;11.60;99.90;;;;;;4996426;28;20026;-76
2024/02/17 11:17:42;;;;;;;9.20;3.00;;;11.70;99.90;;;;;;5001525;28;20037;-75
2024/02/17 11:20:15;;;;;;;8.57;3.25;;;11.70;99.90;;;;;;4997795;28;20049;-73
2024/02/17 11:22:52;;;;;;;5.40;2.03;;;11.70;99.90;;;;;;4997269;28;20382;-72
2024/02/17 11:25:41;;;;;;;4.63;2.22;;;11.70;99.90;;;;;;4996236;28;20034;-72
2024/02/17 11:28:17;;;;;;;2.97;1.90;;;11.70;99.90;;;;;;4996804;28;20033;-71
2024/02/17 11:30:50;;;;;;;11.40;4.85;;;11.80;99.90;;;;;;4999572;28;20113;-71
2024/02/17 11:33:21;;;;;;;7.45;2.50;;;11.70;99.90;;;;;;4994131;28;20093;-71
2024/02/17 11:35:48;;;;;;;5.15;1.90;;;11.60;99.90;;;;;;4993230;28;20062;-71
2024/02/17 11:38:21;;;;;;;6.00;2.10;;;11.60;99.90;;;;;;4998045;28;20032;-74
2024/02/17 11:40:57;;;;;;;7.32;2.10;;;11.50;99.90;;;;;;4997474;28;20092;-72
2024/02/17 11:43:25;;;;;;;4.88;2.53;;;11.40;99.90;;;;;;4989784;28;20494;-71
2024/02/17 11:45:54;;;;;;;8.45;2.40;;;11.50;99.90;;;;;;4994721;28;20037;-73
2024/02/17 11:48:20;;;;;;;10.73;3.30;;;11.60;99.90;;;;;;4997211;28;20026;-72
2024/02/17 11:50:46;;;;;;;9.23;4.45;;;11.60;99.90;;;;;;4981616;28;20608;-80
2024/02/17 11:53:13;;;;;;;4.28;2.08;;;11.40;99.90;;;;;;5001448;28;20391;-74
2024/02/17 11:55:40;;;;;;;19.15;10.65;;;11.40;99.90;;;;;;5003000;28;20018;-74
2024/02/17 11:58:08;;;;;;;;;;;11.40;99.90;;;;;;4996688;28;20821;-74
2024/02/17 12:00:38;;;;;;;7.50;3.33;;;11.50;99.90;;;;;;5002565;28;19921;-74
2024/02/17 12:03:04;;;;;;;4.25;3.05;;;11.40;99.90;;;;;;5001725;28;20413;-73
2024/02/17 12:05:30;;;;;;;7.65;2.88;;;11.50;99.90;;;;;;5000879;28;20540;-74
2024/02/17 12:07:55;;;;;;;5.25;2.33;;;11.50;99.90;;;;;;4997098;28;20034;-74
2024/02/17 12:10:23;;;;;;;6.23;2.40;;;11.50;99.90;;;;;;4995094;28;20053;-73
2024/02/17 12:12:49;;;;;;;9.43;2.85;;;11.50;99.90;;;;;;4993300;28;20030;-75
2024/02/17 12:15:15;;;;;;;8.82;2.60;;;11.60;99.90;;;;;;4998035;28;20125;-74
2024/02/17 12:17:44;;;;;;;8.50;2.53;;;11.50;99.90;;;;;;4998581;28;20117;-75
2024/02/17 12:20:15;;;;;;;5.40;2.70;;;11.50;99.90;;;;;;4999341;28;20053;-74
2024/02/17 12:22:51;;;;;;;8.52;2.65;;;11.50;99.90;;;;;;4998731;28;20042;-75
2024/02/17 12:25:19;;;;;;;7.32;3.00;;;11.50;99.90;;;;;;4999523;28;20030;-74
2024/02/17 12:27:47;;;;;;;6.30;2.90;;;11.60;99.90;;;;;;4998320;28;20509;-74
2024/02/17 12:30:13;;;;;;;9.55;2.67;;;11.50;99.90;;;;;;4996684;28;20034;-74
2024/02/17 12:32:40;;;;;;;7.35;2.40;;;11.40;99.90;;;;;;4997768;28;20040;-75
2024/02/17 12:35:14;;;;;;;6.03;2.60;;;11.40;99.90;;;;;;4980832;28;20157;-71
2024/02/17 12:37:46;;;;;;;6.28;2.55;;;11.50;99.90;;;;;;5002570;28;20025;-73
2024/02/17 12:40:22;;;;;;;8.23;2.03;;;11.40;99.90;;;;;;4986347;28;20041;-73
2024/02/17 12:42:52;;;;;;;7.07;2.92;;;11.60;99.90;;;;;;5001623;28;20086;-74
2024/02/17 12:45:30;;;;;;;6.68;2.80;;;11.50;99.90;;;;;;4999186;28;20030;-74
2024/02/17 12:47:57;;;;;;;5.82;2.25;;;11.60;99.90;;;;;;4988076;28;20390;-73